createdAt,value
2024-04-06T00:00:40.889Z,51.211987
2024-04-06T00:01:40.743Z,51.212170
2024-04-06T00:02:40.720Z,51.212269
2024-04-06T00:03:40.726Z,51.212162
2024-04-06T00:04:40.705Z,51.212032
2024-04-06T00:05:40.710Z,51.211971
2024-04-06T00:06:40.677Z,51.212112
2024-04-06T00:07:40.694Z,51.212223
2024-04-06T00:08:40.672Z,51.212215
2024-04-06T00:09:41.690Z,51.212109
2024-04-06T00:10:40.662Z,51.212082
2024-04-06T00:11:40.750Z,51.212051
2024-04-06T00:12:40.688Z,51.212151
2024-04-06T00:13:40.649Z,51.212055
2024-04-06T00:14:40.640Z,51.211983
2024-04-06T00:15:40.655Z,51.212074
2024-04-06T00:16:40.695Z,51.212173
2024-04-06T00:17:40.641Z,51.212090
2024-04-06T00:18:40.626Z,51.212120
2024-04-06T00:19:40.624Z,51.212006
2024-04-06T00:20:40.608Z,51.212017
2024-04-06T00:21:40.594Z,51.211941
2024-04-06T00:22:40.674Z,51.211971
2024-04-06T00:23:40.596Z,51.211998
2024-04-06T00:24:40.590Z,51.212181
2024-04-06T00:25:40.949Z,51.212097
2024-04-06T00:26:40.656Z,51.212215
2024-04-06T00:27:40.576Z,51.212048
2024-04-06T00:28:40.607Z,51.211960
2024-04-06T00:29:40.550Z,51.211964
2024-04-06T00:30:40.599Z,51.211895
2024-04-06T00:31:41.534Z,51.211906
2024-04-06T00:32:40.575Z,51.211903
2024-04-06T00:33:41.320Z,51.211884
2024-04-06T00:34:40.542Z,51.211914
2024-04-06T00:35:40.526Z,51.212029
2024-04-06T00:36:40.570Z,51.212086
2024-04-06T00:37:40.504Z,51.212029
2024-04-06T00:38:40.527Z,51.211979
2024-04-06T00:39:40.514Z,51.212086
2024-04-06T00:40:40.493Z,51.212227
2024-04-06T00:41:40.491Z,51.212303
2024-04-06T00:42:40.498Z,51.212158
2024-04-06T00:43:40.472Z,51.212090
2024-04-06T00:44:40.464Z,51.212124
2024-04-06T00:45:40.448Z,51.212116
2024-04-06T00:46:40.456Z,51.212166
2024-04-06T00:47:40.455Z,51.212059
2024-04-06T00:48:40.443Z,51.212112
2024-04-06T00:49:40.482Z,51.212139
2024-04-06T00:50:40.434Z,51.212070
2024-04-06T00:51:40.555Z,51.211983
2024-04-06T00:52:40.415Z,51.212029
2024-04-06T00:53:40.403Z,51.212032
2024-04-06T00:54:40.404Z,51.212112
2024-04-06T00:55:40.433Z,51.212116
2024-04-06T00:56:40.408Z,51.212120
2024-04-06T00:57:40.400Z,51.212086
2024-04-06T00:58:40.372Z,51.212063
2024-04-06T00:59:40.439Z,51.212002
2024-04-06T01:00:40.438Z,51.212059
2024-04-06T01:01:47.028Z,51.212139
2024-04-06T01:02:42.387Z,51.212132
2024-04-06T01:03:40.348Z,51.212143
2024-04-06T01:04:40.351Z,51.212181
2024-04-06T01:05:40.340Z,51.212173
2024-04-06T01:06:40.355Z,51.212109
2024-04-06T01:07:40.362Z,51.212112
2024-04-06T01:08:40.306Z,51.212086
2024-04-06T01:09:40.315Z,51.212120
2024-04-06T01:10:40.331Z,51.212078
2024-04-06T01:11:40.336Z,51.212067
2024-04-06T01:12:40.282Z,51.212067
2024-04-06T01:13:40.319Z,51.212101
2024-04-06T01:14:41.309Z,51.212032
2024-04-06T01:15:40.307Z,51.212078
2024-04-06T01:16:40.288Z,51.212063
2024-04-06T01:17:40.294Z,51.212070
2024-04-06T01:18:40.247Z,51.211948
2024-04-06T01:19:40.250Z,51.211929
2024-04-06T01:20:40.251Z,51.212048
2024-04-06T01:21:40.295Z,51.212086
2024-04-06T01:22:40.241Z,51.212154
2024-04-06T01:23:40.239Z,51.212059
2024-04-06T01:24:40.228Z,51.212086
2024-04-06T01:25:40.214Z,51.212101
2024-04-06T01:26:40.240Z,51.212017
2024-04-06T01:27:40.201Z,51.212040
2024-04-06T01:28:40.832Z,51.212017
2024-04-06T01:29:40.182Z,51.211952
2024-04-06T01:30:40.187Z,51.212067
2024-04-06T01:31:40.214Z,51.211864
2024-04-06T01:32:40.269Z,51.212090
2024-04-06T01:33:40.170Z,51.212101
2024-04-06T01:34:40.295Z,51.212120
2024-04-06T01:35:40.155Z,51.212063
2024-04-06T01:36:40.164Z,51.212074
2024-04-06T01:37:40.166Z,51.212124
2024-04-06T01:38:40.134Z,51.212040
2024-04-06T01:39:40.130Z,51.212036
2024-04-06T01:40:40.137Z,51.212063
2024-04-06T01:41:40.144Z,51.212059
2024-04-06T01:42:41.131Z,51.212120
2024-04-06T01:43:40.259Z,51.212067
2024-04-06T01:44:40.141Z,51.212090
2024-04-06T01:45:40.198Z,51.212013
2024-04-06T01:46:40.089Z,51.212059
2024-04-06T01:47:40.104Z,51.212090
2024-04-06T01:48:40.104Z,51.212112
2024-04-06T01:49:40.081Z,51.212013
2024-04-06T01:50:40.085Z,51.211971
2024-04-06T01:51:40.067Z,51.211872
2024-04-06T01:52:40.061Z,51.211864
2024-04-06T01:53:40.091Z,51.211857
2024-04-06T01:54:40.078Z,51.211830
2024-04-06T01:55:40.049Z,51.211918
2024-04-06T01:56:40.035Z,51.211861
2024-04-06T01:57:40.020Z,51.211956
2024-04-06T01:58:40.045Z,51.211956
2024-04-06T01:59:40.039Z,51.211945
2024-04-06T02:00:40.055Z,51.212048
2024-04-06T02:01:40.023Z,51.212177
2024-04-06T02:02:40.184Z,51.212196
2024-04-06T02:03:40.025Z,51.211998
2024-04-06T02:04:40.021Z,51.212067
2024-04-06T02:05:39.984Z,51.212029
2024-04-06T02:06:40.011Z,51.212250
2024-04-06T02:07:39.957Z,51.212234
2024-04-06T02:08:39.948Z,51.212009
2024-04-06T02:09:39.983Z,51.211967
2024-04-06T02:10:39.988Z,51.212170
2024-04-06T02:11:39.954Z,51.212036
2024-04-06T02:12:39.927Z,51.212002
2024-04-06T02:13:39.931Z,51.211960
2024-04-06T02:14:39.925Z,51.211990
2024-04-06T02:15:40.003Z,51.212017
2024-04-06T02:16:39.907Z,51.211876
2024-04-06T02:17:39.953Z,51.211937
2024-04-06T02:18:39.906Z,51.211735
2024-04-06T02:19:40.077Z,51.211758
2024-04-06T02:20:39.923Z,51.211933
2024-04-06T02:21:39.912Z,51.212006
2024-04-06T02:22:39.890Z,51.211990
2024-04-06T02:23:39.915Z,51.211971
2024-04-06T02:24:39.888Z,51.211918
2024-04-06T02:25:39.993Z,51.211895
2024-04-06T02:26:39.939Z,51.211891
2024-04-06T02:27:39.875Z,51.211941
2024-04-06T02:28:40.839Z,51.211937
2024-04-06T02:29:39.978Z,51.211929
2024-04-06T02:30:39.859Z,51.211800
2024-04-06T02:31:39.819Z,51.211792
2024-04-06T02:32:39.830Z,51.211826
2024-04-06T02:33:39.887Z,51.211933
2024-04-06T02:34:39.812Z,51.211678
2024-04-06T02:35:39.873Z,51.211647
2024-04-06T02:36:39.780Z,51.211834
2024-04-06T02:37:39.801Z,51.211964
2024-04-06T02:38:39.786Z,51.212040
2024-04-06T02:39:39.785Z,51.211971
2024-04-06T02:40:39.799Z,51.212101
2024-04-06T02:41:39.763Z,51.212185
2024-04-06T02:42:40.135Z,51.212208
2024-04-06T02:43:39.743Z,51.212200
2024-04-06T02:44:39.732Z,51.212143
2024-04-06T02:45:39.770Z,51.212162
2024-04-06T02:46:39.736Z,51.212196
2024-04-06T02:47:39.783Z,51.212227
2024-04-06T02:48:39.709Z,51.212162
2024-04-06T02:49:39.697Z,51.212212
2024-04-06T02:50:39.699Z,51.212208
2024-04-06T02:51:39.695Z,51.212250
2024-04-06T02:52:39.700Z,51.212212
2024-04-06T02:53:39.669Z,51.212170
2024-04-06T02:54:39.691Z,51.212170
2024-04-06T02:55:39.689Z,51.212204
2024-04-06T02:56:39.660Z,51.212242
2024-04-06T02:57:39.673Z,51.212246
2024-04-06T02:58:39.671Z,51.212231
2024-04-06T02:59:39.667Z,51.212208
2024-04-06T03:00:39.643Z,51.212154
2024-04-06T03:01:39.626Z,51.212173
2024-04-06T03:02:39.670Z,51.212173
2024-04-06T03:03:39.643Z,51.212135
2024-04-06T03:04:39.613Z,51.212135
2024-04-06T03:05:39.613Z,51.212120
2024-04-06T03:06:39.609Z,51.212173
2024-04-06T03:07:39.610Z,51.212109
2024-04-06T03:08:39.613Z,51.212082
2024-04-06T03:09:39.607Z,51.212177
2024-04-06T03:10:39.602Z,51.211906
2024-04-06T03:11:39.573Z,51.212269
2024-04-06T03:12:39.564Z,51.212002
2024-04-06T03:13:39.582Z,51.211956
2024-04-06T03:14:39.557Z,51.211945
2024-04-06T03:15:39.578Z,51.212017
2024-04-06T03:16:39.553Z,51.212055
2024-04-06T03:17:39.635Z,51.211971
2024-04-06T03:18:39.527Z,51.212078
2024-04-06T03:19:39.588Z,51.212040
2024-04-06T03:20:39.532Z,51.211842
2024-04-06T03:21:39.517Z,51.211952
2024-04-06T03:22:39.504Z,51.211975
2024-04-06T03:23:39.506Z,51.212185
2024-04-06T03:24:39.552Z,51.212002
2024-04-06T03:25:39.507Z,51.212132
2024-04-06T03:26:39.485Z,51.212151
2024-04-06T03:27:39.492Z,51.212173
2024-04-06T03:28:39.494Z,51.212250
2024-04-06T03:29:39.459Z,51.212360
2024-04-06T03:30:39.495Z,51.212162
2024-04-06T03:31:39.457Z,51.211956
2024-04-06T03:32:39.548Z,51.212002
2024-04-06T03:33:39.467Z,51.212124
2024-04-06T03:34:39.467Z,51.212154
2024-04-06T03:35:39.461Z,51.212036
2024-04-06T03:36:39.429Z,51.211979
2024-04-06T03:37:39.438Z,51.212090
2024-04-06T03:38:39.428Z,51.212246
2024-04-06T03:39:39.498Z,51.212227
2024-04-06T03:40:39.390Z,51.212139
2024-04-06T03:41:39.420Z,51.212185
2024-04-06T03:42:39.388Z,51.212189
2024-04-06T03:43:39.416Z,51.212177
2024-04-06T03:44:39.385Z,51.212116
2024-04-06T03:45:39.451Z,51.212181
2024-04-06T03:46:39.378Z,51.212097
2024-04-06T03:47:39.472Z,51.212048
2024-04-06T03:48:39.379Z,51.211975
2024-04-06T03:49:39.366Z,51.212036
2024-04-06T03:50:39.349Z,51.212032
2024-04-06T03:51:39.342Z,51.212002
2024-04-06T03:52:39.334Z,51.212090
2024-04-06T03:53:39.340Z,51.212032
2024-04-06T03:54:39.320Z,51.211941
2024-04-06T03:55:39.324Z,51.212078
2024-04-06T03:56:39.338Z,51.212200
2024-04-06T03:57:39.329Z,51.212166
2024-04-06T03:58:39.303Z,51.212265
2024-04-06T03:59:39.293Z,51.212154
2024-04-06T04:00:39.393Z,51.212139
2024-04-06T04:01:39.310Z,51.212112
2024-04-06T04:02:39.300Z,51.212132
2024-04-06T04:03:39.413Z,51.212139
2024-04-06T04:04:39.350Z,51.211910
2024-04-06T04:05:39.395Z,51.212055
2024-04-06T04:06:39.294Z,51.212151
2024-04-06T04:07:39.277Z,51.212254
2024-04-06T04:08:39.268Z,51.212276
2024-04-06T04:09:39.303Z,51.211948
2024-04-06T04:10:40.326Z,51.212120
2024-04-06T04:11:39.248Z,51.212173
2024-04-06T04:12:40.301Z,51.212101
2024-04-06T04:13:39.226Z,51.212112
2024-04-06T04:14:39.221Z,51.212013
2024-04-06T04:15:39.254Z,51.212017
2024-04-06T04:16:39.328Z,51.211948
2024-04-06T04:17:39.399Z,51.212063
2024-04-06T04:18:39.191Z,51.212112
2024-04-06T04:19:39.163Z,51.212025
2024-04-06T04:20:39.915Z,51.211983
2024-04-06T04:21:39.225Z,51.212154
2024-04-06T04:22:40.207Z,51.212257
2024-04-06T04:23:39.249Z,51.212173
2024-04-06T04:24:39.185Z,51.212093
2024-04-06T04:25:39.142Z,51.212170
2024-04-06T04:26:39.214Z,51.212219
2024-04-06T04:27:39.144Z,51.212124
2024-04-06T04:28:39.123Z,51.212181
2024-04-06T04:29:39.124Z,51.212132
2024-04-06T04:30:39.116Z,51.212105
2024-04-06T04:31:39.085Z,51.212070
2024-04-06T04:32:39.256Z,51.211948
2024-04-06T04:33:39.104Z,51.212059
2024-04-06T04:34:40.242Z,51.212112
2024-04-06T04:35:39.107Z,51.212143
2024-04-06T04:36:39.954Z,51.212097
2024-04-06T04:37:39.202Z,51.212051
2024-04-06T04:38:39.121Z,51.211956
2024-04-06T04:39:39.063Z,51.211979
2024-04-06T04:40:39.052Z,51.211975
2024-04-06T04:41:39.070Z,51.212074
2024-04-06T04:42:39.091Z,51.212002
2024-04-06T04:43:39.034Z,51.212143
2024-04-06T04:44:41.491Z,51.212368
2024-04-06T04:45:39.042Z,51.212406
2024-04-06T04:46:39.038Z,51.212048
2024-04-06T04:47:39.180Z,51.211880
2024-04-06T04:48:39.015Z,51.212013
2024-04-06T04:49:39.106Z,51.212154
2024-04-06T04:50:39.015Z,51.212261
2024-04-06T04:51:38.990Z,51.212185
2024-04-06T04:52:38.992Z,51.212132
2024-04-06T04:53:39.016Z,51.211971
2024-04-06T04:54:38.985Z,51.212189
2024-04-06T04:55:38.988Z,51.212128
2024-04-06T04:56:38.969Z,51.212158
2024-04-06T04:57:38.962Z,51.212257
2024-04-06T04:58:39.026Z,51.212189
2024-04-06T04:59:38.973Z,51.212181
2024-04-06T05:00:38.972Z,51.212074
2024-04-06T05:01:38.935Z,51.212059
2024-04-06T05:02:38.944Z,51.212196
2024-04-06T05:03:38.935Z,51.212193
2024-04-06T05:04:38.942Z,51.212093
2024-04-06T05:05:38.919Z,51.212017
2024-04-06T05:06:39.912Z,51.212112
2024-04-06T05:07:38.919Z,51.212070
2024-04-06T05:08:38.919Z,51.211971
2024-04-06T05:09:38.903Z,51.212051
2024-04-06T05:10:38.902Z,51.212120
2024-04-06T05:11:38.905Z,51.212116
2024-04-06T05:12:38.886Z,51.211887
2024-04-06T05:13:39.962Z,51.211945
2024-04-06T05:14:38.867Z,51.212070
2024-04-06T05:15:38.878Z,51.212048
2024-04-06T05:16:38.860Z,51.212078
2024-04-06T05:17:38.982Z,51.212166
2024-04-06T05:18:38.896Z,51.212112
2024-04-06T05:19:38.869Z,51.212116
2024-04-06T05:20:38.821Z,51.212177
2024-04-06T05:21:38.903Z,51.212200
2024-04-06T05:22:38.831Z,51.212250
2024-04-06T05:23:38.842Z,51.212139
2024-04-06T05:24:38.808Z,51.212044
2024-04-06T05:25:38.900Z,51.212112
2024-04-06T05:26:38.834Z,51.212166
2024-04-06T05:27:41.542Z,51.212151
2024-04-06T05:28:39.867Z,51.212265
2024-04-06T05:29:38.763Z,51.212257
2024-04-06T05:30:38.786Z,51.212208
2024-04-06T05:31:38.768Z,51.212132
2024-04-06T05:32:38.799Z,51.212189
2024-04-06T05:33:38.766Z,51.212120
2024-04-06T05:34:38.791Z,51.212143
2024-04-06T05:35:38.777Z,51.212151
2024-04-06T05:36:38.718Z,51.212132
2024-04-06T05:37:39.729Z,51.212063
2024-04-06T05:38:38.744Z,51.212040
2024-04-06T05:39:38.746Z,51.212059
2024-04-06T05:40:38.720Z,51.211990
2024-04-06T05:41:38.765Z,51.212116
2024-04-06T05:42:40.463Z,51.212063
2024-04-06T05:43:38.669Z,51.212074
2024-04-06T05:44:38.784Z,51.212070
2024-04-06T05:45:38.754Z,51.212109
2024-04-06T05:46:38.651Z,51.212074
2024-04-06T05:47:38.698Z,51.212135
2024-04-06T05:48:38.690Z,51.212070
2024-04-06T05:49:38.666Z,51.212078
2024-04-06T05:50:38.694Z,51.212067
2024-04-06T05:51:38.654Z,51.212143
2024-04-06T05:52:38.613Z,51.212109
2024-04-06T05:53:38.649Z,51.212128
2024-04-06T05:54:38.606Z,51.211983
2024-04-06T05:55:38.660Z,51.212036
2024-04-06T05:56:38.698Z,51.212051
2024-04-06T05:57:38.597Z,51.212067
2024-04-06T05:58:38.575Z,51.211933
2024-04-06T05:59:38.621Z,51.212090
2024-04-06T06:00:38.556Z,51.212097
2024-04-06T06:01:38.571Z,51.212021
2024-04-06T06:02:38.578Z,51.211891
2024-04-06T06:03:38.576Z,51.211971
2024-04-06T06:04:38.538Z,51.212147
2024-04-06T06:05:38.595Z,51.212063
2024-04-06T06:06:39.346Z,51.212074
2024-04-06T06:07:38.629Z,51.212116
2024-04-06T06:08:38.554Z,51.212109
2024-04-06T06:09:38.537Z,51.212135
2024-04-06T06:10:38.506Z,51.212303
2024-04-06T06:11:38.561Z,51.212284
2024-04-06T06:12:38.488Z,51.212151
2024-04-06T06:13:38.482Z,51.212212
2024-04-06T06:14:38.559Z,51.212124
2024-04-06T06:15:39.505Z,51.212173
2024-04-06T06:16:39.475Z,51.212135
2024-04-06T06:17:38.461Z,51.212070
2024-04-06T06:18:38.485Z,51.212124
2024-04-06T06:19:38.476Z,51.212219
2024-04-06T06:20:38.513Z,51.212200
2024-04-06T06:21:38.459Z,51.212074
2024-04-06T06:22:38.425Z,51.212097
2024-04-06T06:23:38.514Z,51.212082
2024-04-06T06:24:38.480Z,51.212212
2024-04-06T06:25:38.420Z,51.212196
2024-04-06T06:26:38.470Z,51.212120
2024-04-06T06:27:38.436Z,51.212215
2024-04-06T06:28:38.526Z,51.212208
2024-04-06T06:29:38.524Z,51.212181
2024-04-06T06:30:38.423Z,51.212212
2024-04-06T06:31:38.390Z,51.212173
2024-04-06T06:32:38.413Z,51.212097
2024-04-06T06:33:38.420Z,51.212135
2024-04-06T06:34:38.375Z,51.212147
2024-04-06T06:37:52.886Z,51.212124
2024-04-06T06:40:41.184Z,51.211987
2024-04-06T06:40:41.654Z,51.212120
2024-04-06T06:41:40.794Z,51.212158
2024-04-06T06:42:38.301Z,51.212135
2024-04-06T06:43:38.314Z,51.212143
2024-04-06T06:44:38.366Z,51.212227
2024-04-06T06:45:38.297Z,51.212280
2024-04-06T06:46:38.273Z,51.212135
2024-04-06T06:47:38.308Z,51.212147
2024-04-06T06:48:38.286Z,51.212223
2024-04-06T06:49:38.300Z,51.212166
2024-04-06T06:50:38.347Z,51.212151
2024-04-06T06:51:38.246Z,51.212154
2024-04-06T06:52:38.248Z,51.212193
2024-04-06T06:53:38.281Z,51.212200
2024-04-06T06:54:41.406Z,51.212208
2024-04-06T06:55:38.228Z,51.212158
2024-04-06T06:56:38.304Z,51.212181
2024-04-06T06:57:38.227Z,51.212215
2024-04-06T06:58:38.199Z,51.212303
2024-04-06T07:00:39.248Z,51.212032
2024-04-06T07:01:39.855Z,51.211975
2024-04-06T07:02:39.192Z,51.211903
2024-04-06T07:03:38.172Z,51.212078
2024-04-06T07:04:38.173Z,51.212002
2024-04-06T07:05:38.188Z,51.211742
2024-04-06T07:07:39.215Z,51.212048
2024-04-06T07:08:38.149Z,51.212170
2024-04-06T07:09:38.166Z,51.212200
2024-04-06T07:10:38.152Z,51.212051
2024-04-06T07:11:38.132Z,51.212116
2024-04-06T07:12:38.114Z,51.211975
2024-04-06T07:13:38.136Z,51.212158
2024-04-06T07:14:38.124Z,51.212196
2024-04-06T07:15:38.097Z,51.212177
2024-04-06T07:16:38.314Z,51.212193
2024-04-06T07:17:38.094Z,51.212173
2024-04-06T07:18:38.093Z,51.212215
2024-04-06T07:19:38.111Z,51.212166
2024-04-06T07:20:38.076Z,51.212189
2024-04-06T07:21:38.105Z,51.212112
2024-04-06T07:22:38.096Z,51.212093
2024-04-06T07:23:38.058Z,51.212109
2024-04-06T07:24:38.082Z,51.212112
2024-04-06T07:25:38.033Z,51.212173
2024-04-06T07:26:38.073Z,51.212093
2024-04-06T07:27:38.029Z,51.212200
2024-04-06T07:28:38.027Z,51.212250
2024-04-06T07:29:38.076Z,51.212322
2024-04-06T07:30:37.999Z,51.212177
2024-04-06T07:31:38.176Z,51.212135
2024-04-06T07:32:37.991Z,51.212170
2024-04-06T07:33:38.004Z,51.212029
2024-04-06T07:34:37.970Z,51.212193
2024-04-06T07:35:37.984Z,51.212181
2024-04-06T07:36:38.001Z,51.212273
2024-04-06T07:37:37.969Z,51.212109
2024-04-06T07:39:19.856Z,51.212143
2024-04-06T07:39:39.956Z,51.212093
2024-04-06T07:40:37.950Z,51.212097
2024-04-06T07:41:37.936Z,51.212288
2024-04-06T07:42:37.956Z,51.212036
2024-04-06T07:43:37.935Z,51.212086
2024-04-06T07:44:37.926Z,51.212196
2024-04-06T07:45:37.903Z,51.212273
2024-04-06T07:46:37.919Z,51.212002
2024-04-06T07:47:37.908Z,51.212032
2024-04-06T07:48:37.919Z,51.212189
2024-04-06T07:49:37.890Z,51.212234
2024-04-06T07:50:37.879Z,51.212254
2024-04-06T07:51:37.888Z,51.212288
2024-04-06T07:52:37.870Z,51.212246
2024-04-06T07:53:37.929Z,51.212166
2024-04-06T07:54:37.863Z,51.212090
2024-04-06T07:55:37.863Z,51.212059
2024-04-06T07:56:37.857Z,51.212112
2024-04-06T07:57:37.861Z,51.212219
2024-04-06T07:58:37.831Z,51.212254
2024-04-06T07:59:37.946Z,51.212292
2024-04-06T08:00:37.821Z,51.212025
2024-04-06T08:01:37.808Z,51.212139
2024-04-06T08:02:37.814Z,51.212238
2024-04-06T08:03:37.817Z,51.212284
2024-04-06T08:04:37.848Z,51.212311
2024-04-06T08:05:37.798Z,51.212322
2024-04-06T08:06:37.792Z,51.212288
2024-04-06T08:07:37.792Z,51.212093
2024-04-06T08:08:37.791Z,51.212055
2024-04-06T08:09:37.824Z,51.212173
2024-04-06T08:10:37.783Z,51.212311
2024-04-06T08:11:37.771Z,51.212246
2024-04-06T08:12:38.061Z,51.212212
2024-04-06T08:13:37.768Z,51.212219
2024-04-06T08:14:37.732Z,51.212227
2024-04-06T08:15:37.738Z,51.212231
2024-04-06T08:16:37.725Z,51.212143
2024-04-06T08:17:37.749Z,51.212139
2024-04-06T08:18:37.701Z,51.212082
2024-04-06T08:19:37.737Z,51.212151
2024-04-06T08:20:37.732Z,51.212112
2024-04-06T08:21:37.716Z,51.212105
2024-04-06T08:22:37.690Z,51.212059
2024-04-06T08:23:37.675Z,51.212097
2024-04-06T08:24:37.680Z,51.212158
2024-04-06T08:25:37.666Z,51.212097
2024-04-06T08:26:37.652Z,51.212212
2024-04-06T08:27:37.664Z,51.212101
2024-04-06T08:28:37.643Z,51.212017
2024-04-06T08:29:37.653Z,51.212040
2024-04-06T08:30:37.603Z,51.212276
2024-04-06T08:31:37.658Z,51.212101
2024-04-06T08:32:37.625Z,51.211910
2024-04-06T08:33:37.634Z,51.212021
2024-04-06T08:34:37.639Z,51.212048
2024-04-06T08:35:37.608Z,51.212116
2024-04-06T08:36:37.628Z,51.212017
2024-04-06T08:37:37.605Z,51.212044
2024-04-06T08:38:37.598Z,51.212051
2024-04-06T08:39:37.601Z,51.212109
2024-04-06T08:40:37.645Z,51.212090
2024-04-06T08:41:37.589Z,51.212082
2024-04-06T08:42:37.573Z,51.212078
2024-04-06T08:43:37.573Z,51.212067
2024-04-06T08:44:37.553Z,51.212093
2024-04-06T08:45:37.589Z,51.212166
2024-04-06T08:46:37.559Z,51.212135
2024-04-06T08:47:37.598Z,51.212070
2024-04-06T08:48:37.531Z,51.212070
2024-04-06T08:49:37.541Z,51.212070
2024-04-06T08:50:37.549Z,51.212135
2024-04-06T08:51:37.513Z,51.212120
2024-04-06T08:52:37.488Z,51.212132
2024-04-06T08:53:37.507Z,51.212124
2024-04-06T08:54:37.488Z,51.212082
2024-04-06T08:55:37.473Z,51.212086
2024-04-06T08:56:37.476Z,51.212105
2024-04-06T08:57:37.452Z,51.212055
2024-04-06T08:58:37.477Z,51.211914
2024-04-06T08:59:37.457Z,51.212502
2024-04-06T09:00:37.446Z,51.212112
2024-04-06T09:01:37.476Z,51.212143
2024-04-06T09:02:37.445Z,51.212074
2024-04-06T09:03:37.442Z,51.212173
2024-04-06T09:04:37.417Z,51.212261
2024-04-06T09:05:37.412Z,51.212189
2024-04-06T09:06:37.432Z,51.212200
2024-04-06T09:07:37.407Z,51.212215
2024-04-06T09:08:37.403Z,51.212219
2024-04-06T09:09:37.400Z,51.212147
2024-04-06T09:10:37.406Z,51.212173
2024-04-06T09:11:37.369Z,51.212017
2024-04-06T09:12:37.391Z,51.212330
2024-04-06T09:13:37.374Z,51.212193
2024-04-06T09:14:37.385Z,51.212109
2024-04-06T09:15:37.442Z,51.212074
2024-04-06T09:16:37.406Z,51.212101
2024-04-06T09:17:37.451Z,51.212112
2024-04-06T09:18:37.432Z,51.212116
2024-04-06T09:19:37.409Z,51.212093
2024-04-06T09:20:37.338Z,51.212158
2024-04-06T09:21:37.373Z,51.212151
2024-04-06T09:22:37.330Z,51.212101
2024-04-06T09:23:37.431Z,51.212002
2024-04-06T09:24:37.326Z,51.212215
2024-04-06T09:25:37.298Z,51.212223
2024-04-06T09:26:37.329Z,51.211861
2024-04-06T09:27:37.268Z,51.212025
2024-04-06T09:28:37.472Z,51.212120
2024-04-06T09:29:37.345Z,51.212189
2024-04-06T09:30:37.327Z,51.212170
2024-04-06T09:31:37.338Z,51.211895
2024-04-06T09:32:37.279Z,51.211781
2024-04-06T09:33:37.240Z,51.211994
2024-04-06T09:34:37.483Z,51.212154
2024-04-06T09:35:37.336Z,51.212231
2024-04-06T09:36:37.326Z,51.212212
2024-04-06T09:37:37.278Z,51.212132
2024-04-06T09:38:37.245Z,51.212315
2024-04-06T09:39:37.426Z,51.212193
2024-04-06T09:40:37.212Z,51.212475
2024-04-06T09:41:37.192Z,51.212639
2024-04-06T09:42:37.209Z,51.212395
2024-04-06T09:43:37.186Z,51.212200
2024-04-06T09:44:37.187Z,51.212269
2024-04-06T09:45:37.251Z,51.212196
2024-04-06T09:46:37.162Z,51.212055
2024-04-06T09:47:37.181Z,51.211864
2024-04-06T09:48:37.194Z,51.212097
2024-04-06T09:49:37.222Z,51.212154
2024-04-06T09:50:37.221Z,51.211945
2024-04-06T09:51:37.129Z,51.212101
2024-04-06T09:52:37.160Z,51.212124
2024-04-06T09:53:37.138Z,51.212193
2024-04-06T09:54:37.115Z,51.212116
2024-04-06T09:55:37.129Z,51.212067
2024-04-06T09:56:37.132Z,51.212009
2024-04-06T09:57:37.105Z,51.212017
2024-04-06T09:58:37.089Z,51.212036
2024-04-06T09:59:37.094Z,51.211971
2024-04-06T10:00:37.143Z,51.212032
2024-04-06T10:01:37.080Z,51.212181
2024-04-06T10:02:37.078Z,51.212181
2024-04-06T10:03:37.064Z,51.212120
2024-04-06T10:04:37.068Z,51.212097
2024-04-06T10:05:37.087Z,51.212090
2024-04-06T10:06:37.408Z,51.212280
2024-04-06T10:07:37.061Z,51.212196
2024-04-06T10:08:37.079Z,51.212170
2024-04-06T10:09:37.047Z,51.212208
2024-04-06T10:10:37.137Z,51.212242
2024-04-06T10:11:37.067Z,51.212208
2024-04-06T10:12:37.061Z,51.212055
2024-04-06T10:13:37.038Z,51.211983
2024-04-06T10:14:37.033Z,51.211979
2024-04-06T10:15:37.060Z,51.212017
2024-04-06T10:16:37.030Z,51.212162
2024-04-06T10:17:37.025Z,51.212025
2024-04-06T10:18:37.075Z,51.211937
2024-04-06T10:19:36.986Z,51.211838
2024-04-06T10:20:36.985Z,51.211861
2024-04-06T10:21:36.999Z,51.211906
2024-04-06T10:22:36.996Z,51.211994
2024-04-06T10:23:37.021Z,51.212109
2024-04-06T10:24:36.966Z,51.212109
2024-04-06T10:25:36.983Z,51.212086
2024-04-06T10:26:36.974Z,51.211830
2024-04-06T10:27:36.957Z,51.211910
2024-04-06T10:28:36.953Z,51.211872
2024-04-06T10:29:36.973Z,51.211994
2024-04-06T10:30:36.938Z,51.212048
2024-04-06T10:31:46.017Z,51.212036
2024-04-06T10:32:38.908Z,51.211803
2024-04-06T10:33:36.928Z,51.211796
2024-04-06T10:34:46.132Z,51.212036
2024-04-06T10:35:38.892Z,51.212315
2024-04-06T10:36:36.878Z,51.212147
2024-04-06T10:37:36.876Z,51.212097
2024-04-06T10:38:36.910Z,51.212154
2024-04-06T10:39:36.881Z,51.212193
2024-04-06T10:40:36.832Z,51.212128
2024-04-06T10:41:36.852Z,51.212105
2024-04-06T10:42:36.836Z,51.212315
2024-04-06T10:43:36.855Z,51.212452
2024-04-06T10:44:36.825Z,51.212257
2024-04-06T10:45:36.816Z,51.212357
2024-04-06T10:46:36.839Z,51.212315
2024-04-06T10:47:36.808Z,51.212112
2024-04-06T10:48:36.816Z,51.212067
2024-04-06T10:49:36.826Z,51.212143
2024-04-06T10:50:36.847Z,51.212040
2024-04-06T10:51:36.834Z,51.212193
2024-04-06T10:52:36.769Z,51.212185
2024-04-06T10:53:36.836Z,51.211967
2024-04-06T10:54:38.939Z,51.212078
2024-04-06T10:55:37.823Z,51.212105
2024-04-06T10:56:36.777Z,51.212204
2024-04-06T10:57:36.854Z,51.211998
2024-04-06T10:58:36.757Z,51.211796
2024-04-06T10:59:36.757Z,51.211720
2024-04-06T11:00:38.215Z,51.211967
2024-04-06T11:01:37.760Z,51.212315
2024-04-06T11:02:36.727Z,51.212189
2024-04-06T11:03:36.751Z,51.212315
2024-04-06T11:04:36.695Z,51.212406
2024-04-06T11:05:36.836Z,51.212246
2024-04-06T11:06:39.148Z,51.212170
2024-04-06T11:07:37.674Z,51.212204
2024-04-06T11:08:36.714Z,51.212215
2024-04-06T11:09:37.408Z,51.212189
2024-04-06T11:10:36.710Z,51.212250
2024-04-06T11:11:36.981Z,51.212269
2024-04-06T11:12:38.994Z,51.212219
2024-04-06T11:13:37.660Z,51.212170
2024-04-06T11:14:36.675Z,51.212196
2024-04-06T11:15:36.671Z,51.212242
2024-04-06T11:16:36.654Z,51.212173
2024-04-06T11:17:36.622Z,51.212074
2024-04-06T11:18:36.679Z,51.212093
2024-04-06T11:19:36.616Z,51.212074
2024-04-06T11:20:36.626Z,51.212105
2024-04-06T11:21:36.655Z,51.212147
2024-04-06T11:22:36.603Z,51.212116
2024-04-06T11:23:36.675Z,51.212162
2024-04-06T11:24:38.812Z,51.212181
2024-04-06T11:25:37.588Z,51.212257
2024-04-06T11:26:36.611Z,51.212143
2024-04-06T11:27:36.579Z,51.211994
2024-04-06T11:28:36.596Z,51.212006
2024-04-06T11:29:36.588Z,51.212044